Time;durP1;ratioP1;P1;durP2;ratioP2;P2;SDS_P1;SDS_P2;PMS_P1;PMS_P2;Temp;Humidity;BMP_temperature;BMP_pressure;BME280_temperature;BME280_humidity;BME280_pressure;Samples;Min_cycle;Max_cycle;Signal;HPM_P1;HPM_P2
2021/01/30 00:01:51;;;;;;;67.73;40.57;;;;;;;-1.18;83.38;96996.81;123320;1102;64944;-76
2021/01/30 00:04:18;;;;;;;65.35;41.25;;;;;;;-1.19;83.30;96992.49;123391;1102;64942;-75
2021/01/30 00:06:51;;;;;;;78.63;44.63;;;;;;;-1.20;84.31;96988.20;123370;1102;64831;-76
2021/01/30 00:09:18;;;;;;;70.40;45.10;;;;;;;-1.18;84.08;96983.75;123392;1102;64931;-76
2021/01/30 00:11:49;;;;;;;67.77;41.23;;;;;;;-1.22;83.41;96979.59;123372;1102;64828;-76
2021/01/30 00:14:31;;;;;;;64.20;39.80;;;;;;;-1.21;83.53;96977.81;123352;1102;65464;-74
2021/01/30 00:16:59;;;;;;;64.70;39.33;;;;;;;-1.23;84.10;96977.91;123349;1102;64902;-74
2021/01/30 00:19:26;;;;;;;61.97;38.33;;;;;;;-1.22;83.91;96976.14;123390;1102;64937;-76
2021/01/30 00:21:58;;;;;;;59.93;36.33;;;;;;;-1.21;84.23;96973.46;123388;1100;64930;-76
2021/01/30 00:24:26;;;;;;;54.33;35.97;;;;;;;-1.19;83.56;96966.36;123368;1101;64984;-75
2021/01/30 00:26:58;;;;;;;57.90;36.33;;;;;;;-1.20;83.84;96975.14;123372;1102;64995;-75
2021/01/30 00:29:28;;;;;;;59.83;37.53;;;;;;;-1.18;84.17;96978.52;123363;1102;64912;-75
2021/01/30 00:31:55;;;;;;;;;;;;;;;-1.18;83.66;96986.36;123437;1102;66191;-75
2021/01/30 00:34:25;;;;;;;65.57;37.40;;;;;;;-1.18;84.15;96988.14;123370;1102;64947;-75
2021/01/30 00:36:54;;;;;;;64.30;39.50;;;;;;;-1.19;83.63;96989.05;123369;1102;65357;-75
2021/01/30 00:39:20;;;;;;;66.03;40.60;;;;;;;-1.20;83.43;96996.05;123326;1105;65183;-76
2021/01/30 00:41:47;;;;;;;66.07;39.20;;;;;;;-1.19;84.00;96986.43;123403;1101;64918;-76
2021/01/30 00:44:15;;;;;;;65.63;41.77;;;;;;;-1.20;84.04;96984.75;123350;1102;64908;-76
2021/01/30 00:46:42;;;;;;;70.30;42.43;;;;;;;-1.19;83.71;96994.27;123390;1102;64937;-76
2021/01/30 00:49:09;;;;;;;73.40;43.27;;;;;;;-1.19;84.05;96976.81;123370;1102;64934;-76
2021/01/30 00:51:35;;;;;;;69.73;42.07;;;;;;;-1.14;84.22;96980.03;123352;1102;64927;-76
2021/01/30 00:54:02;;;;;;;75.47;44.23;;;;;;;-1.13;84.25;96979.12;123382;1102;64864;-75
2021/01/30 00:56:28;;;;;;;80.07;46.03;;;;;;;-1.12;83.75;96972.12;123365;1102;64933;-75
2021/01/30 00:58:55;;;;;;;82.37;45.77;;;;;;;-1.11;84.08;96968.58;123339;1105;64981;-75
2021/01/30 01:01:21;;;;;;;79.77;47.37;;;;;;;-1.07;83.83;96964.05;123338;1105;64991;-75
2021/01/30 01:03:48;;;;;;;82.83;49.70;;;;;;;-1.05;83.74;96965.66;123346;1102;64863;-75
2021/01/30 01:06:14;;;;;;;80.00;48.47;;;;;;;-1.03;83.44;96968.17;123345;1102;65282;-75
2021/01/30 01:08:40;;;;;;;80.90;47.90;;;;;;;-1.00;83.64;96960.16;123372;1102;64828;-75
2021/01/30 01:11:09;;;;;;;82.03;47.70;;;;;;;-1.01;83.76;96959.32;123337;1102;64930;-76
2021/01/30 01:13:36;;;;;;;89.53;48.77;;;;;;;-1.05;83.68;96963.05;123371;1102;64885;-75
2021/01/30 01:16:03;;;;;;;78.05;45.80;;;;;;;-1.06;83.66;96956.11;123376;1105;64991;-76
2021/01/30 01:18:30;;;;;;;80.37;47.37;;;;;;;-1.04;83.77;96949.03;123353;1102;65215;-75
2021/01/30 01:20:58;;;;;;;78.03;44.50;;;;;;;-1.03;83.39;96952.48;123374;1102;65525;-75
2021/01/30 01:23:25;;;;;;;81.37;46.90;;;;;;;-1.04;83.48;96949.03;123396;1102;64861;-75
2021/01/30 01:25:51;;;;;;;76.70;45.60;;;;;;;-1.06;84.05;96953.49;123348;1102;64912;-75
2021/01/30 01:28:17;;;;;;;77.90;48.07;;;;;;;-1.03;84.03;96952.48;123314;1102;64854;-75
2021/01/30 01:30:44;;;;;;;80.27;46.53;;;;;;;-0.97;83.73;96953.02;123366;1105;64882;-76
2021/01/30 01:33:10;;;;;;;77.50;48.13;;;;;;;-0.94;83.80;96947.62;123342;1102;65027;-75
2021/01/30 01:35:36;;;;;;;80.60;47.43;;;;;;;-0.95;83.79;96948.55;123362;1102;64893;-75
2021/01/30 01:38:03;;;;;;;82.47;49.20;;;;;;;-0.92;84.15;96944.94;123375;1102;64873;-76
2021/01/30 01:40:39;;;;;;;80.00;47.60;;;;;;;-0.96;83.84;96941.62;123360;1101;64944;-75
2021/01/30 01:43:11;;;;;;;77.50;46.10;;;;;;;-0.95;83.60;96940.72;123420;1102;64889;-75
2021/01/30 01:45:38;;;;;;;78.70;47.57;;;;;;;-0.90;84.17;96930.82;123399;1102;64905;-75
2021/01/30 01:48:21;;;;;;;76.23;47.73;;;;;;;-0.89;83.72;96927.30;123384;1102;64898;-75
2021/01/30 01:50:50;;;;;;;77.73;47.27;;;;;;;-0.85;84.09;96924.52;123339;1102;65039;-75
2021/01/30 01:53:24;;;;;;;75.87;44.77;;;;;;;-0.73;84.33;96916.01;123401;1102;65298;-75
2021/01/30 01:55:57;;;;;;;76.43;47.43;;;;;;;-0.60;84.15;96921.41;123364;1102;64934;-75
2021/01/30 01:58:25;;;;;;;79.83;48.87;;;;;;;-0.52;84.23;96917.43;123404;1102;64939;-76
2021/01/30 02:00:53;;;;;;;82.95;49.20;;;;;;;-0.45;84.08;96910.06;123459;1102;64931;-75
2021/01/30 02:03:21;;;;;;;81.27;49.93;;;;;;;-0.46;83.71;96908.39;123391;1102;64841;-75
2021/01/30 02:05:47;;;;;;;91.57;54.03;;;;;;;-0.41;83.86;96901.13;123319;1102;65367;-75
2021/01/30 02:08:17;;;;;;;86.50;56.57;;;;;;;-0.39;83.63;96898.44;123339;1102;64912;-75
2021/01/30 02:10:50;;;;;;;91.40;56.97;;;;;;;-0.40;83.86;96891.49;123382;1102;64907;-75
2021/01/30 02:13:32;;;;;;;86.65;52.75;;;;;;;-0.40;83.74;96892.33;123388;1102;65059;-76
2021/01/30 02:16:24;;;;;;;86.27;52.47;;;;;;;-0.43;83.37;96887.27;123342;1105;64876;-76
2021/01/30 02:19:28;;;;;;;87.90;50.27;;;;;;;-0.48;83.43;96879.68;123230;1102;64988;-76
2021/01/30 02:22:06;;;;;;;81.07;51.07;;;;;;;-0.53;83.76;96884.33;123409;1102;64902;-76
2021/01/30 02:24:36;;;;;;;85.00;52.47;;;;;;;-0.52;83.95;96882.58;123334;1102;64912;-75
2021/01/30 02:27:02;;;;;;;86.87;52.80;;;;;;;-0.56;84.01;96889.73;123356;1102;64902;-75
2021/01/30 02:29:47;;;;;;;81.43;50.40;;;;;;;-0.58;83.29;96888.13;123342;1102;64908;-75
2021/01/30 02:32:13;;;;;;;83.43;51.97;;;;;;;-0.53;84.06;96880.88;123341;1102;64930;-76
2021/01/30 02:35:02;;;;;;;88.40;55.83;;;;;;;-0.48;83.82;96884.08;123350;1102;64957;-76
2021/01/30 02:37:49;;;;;;;89.60;55.40;;;;;;;-0.43;83.52;96874.19;123371;1101;64934;-76
2021/01/30 02:40:21;;;;;;;88.67;54.10;;;;;;;-0.45;83.27;96866.45;123380;1102;64905;-75
2021/01/30 02:42:58;;;;;;;86.63;54.10;;;;;;;-0.43;84.13;96876.81;123365;1105;64872;-75
2021/01/30 02:45:28;;;;;;;82.07;54.03;;;;;;;-0.41;84.07;96877.57;123353;1102;64889;-75
2021/01/30 02:48:08;;;;;;;90.03;52.87;;;;;;;-0.37;83.44;96873.87;123401;1105;64870;-76
2021/01/30 02:50:45;;;;;;;92.90;56.87;;;;;;;-0.35;84.13;96876.37;123385;1102;64934;-76
2021/01/30 02:53:19;;;;;;;89.80;55.90;;;;;;;-0.40;83.61;96874.02;123369;1102;64882;-75
2021/01/30 02:55:48;;;;;;;93.25;57.80;;;;;;;-0.41;84.04;96868.89;123385;1102;65343;-75
2021/01/30 02:58:17;;;;;;;88.70;54.07;;;;;;;-0.43;83.57;96847.19;123378;1103;65030;-75
2021/01/30 03:00:47;;;;;;;89.60;55.80;;;;;;;-0.47;83.73;96844.75;123363;1102;64946;-75
2021/01/30 03:03:14;;;;;;;85.70;55.40;;;;;;;-0.51;83.38;96843.23;123376;1102;64994;-74
2021/01/30 03:05:44;;;;;;;81.47;51.10;;;;;;;-0.52;83.64;96853.80;123399;1102;64885;-75
2021/01/30 03:08:31;;;;;;;;;;;;;;;-0.51;83.89;96850.24;123430;1102;64902;-75
2021/01/30 03:11:07;;;;;;;85.37;52.73;;;;;;;-0.52;83.32;96856.42;123328;1102;65099;-75
2021/01/30 03:13:49;;;;;;;82.43;49.77;;;;;;;-0.52;83.94;96859.03;123404;1102;64882;-74
2021/01/30 03:16:19;;;;;;;81.30;51.17;;;;;;;-0.52;83.81;96854.64;123379;1102;64924;-75
2021/01/30 03:19:03;;;;;;;81.63;51.80;;;;;;;-0.53;83.31;96850.31;123436;1102;64944;-75
2021/01/30 03:21:31;;;;;;;88.83;54.37;;;;;;;-0.50;83.57;96855.41;123373;1102;64889;-75
2021/01/30 03:24:01;;;;;;;88.10;54.85;;;;;;;-0.48;83.59;96847.45;123398;1102;65011;-75
2021/01/30 03:26:28;;;;;;;;;;;;;;;-0.53;83.54;96852.94;123437;1102;64831;-75
2021/01/30 03:28:56;;;;;;;88.73;53.40;;;;;;;-0.56;83.37;96840.03;123387;1102;65343;-75
2021/01/30 03:31:23;;;;;;;85.87;54.97;;;;;;;-0.55;83.77;96852.20;123407;1101;64914;-75
2021/01/30 03:33:51;;;;;;;88.33;57.47;;;;;;;-0.53;83.98;96842.47;123406;1102;64917;-75
2021/01/30 03:36:18;;;;;;;86.30;55.17;;;;;;;-0.50;83.88;96842.31;123398;1102;64905;-75
2021/01/30 03:38:44;;;;;;;81.83;53.93;;;;;;;-0.50;83.57;96829.23;123383;1102;64882;-74
2021/01/30 03:41:10;;;;;;;86.00;56.15;;;;;;;-0.51;83.45;96839.78;123380;1102;65337;-75
2021/01/30 03:43:36;;;;;;;141.03;84.20;;;;;;;-0.52;83.44;96831.09;123373;1102;64937;-75
2021/01/30 03:46:03;;;;;;;125.30;73.27;;;;;;;-0.50;83.77;96834.47;123374;1102;64888;-75
2021/01/30 03:48:30;;;;;;;157.63;82.50;;;;;;;-0.49;83.91;96817.83;123402;1102;65058;-75
2021/01/30 03:50:56;;;;;;;149.63;85.73;;;;;;;-0.48;83.45;96821.28;123367;1102;65361;-75
2021/01/30 03:53:23;;;;;;;135.30;74.17;;;;;;;-0.47;83.19;96813.36;123390;1102;64966;-76
2021/01/30 03:55:49;;;;;;;217.47;109.37;;;;;;;-0.47;83.31;96802.05;123380;1102;64902;-75
2021/01/30 03:58:15;;;;;;;163.33;88.43;;;;;;;-0.46;83.51;96804.56;123410;1102;64990;-77
2021/01/30 04:00:42;;;;;;;90.43;54.83;;;;;;;-0.43;83.30;96802.70;123398;1102;64896;-76
2021/01/30 04:03:08;;;;;;;85.20;52.55;;;;;;;-0.42;83.99;96791.30;123351;1102;64984;-75
2021/01/30 04:05:34;;;;;;;139.50;79.57;;;;;;;-0.42;83.93;96789.55;123342;1102;64903;-75
2021/01/30 04:08:02;;;;;;;157.40;88.10;;;;;;;-0.45;83.86;96789.70;123353;1102;64911;-75
2021/01/30 04:10:35;;;;;;;94.90;58.40;;;;;;;-0.44;83.46;96788.79;123378;1102;64892;-76
2021/01/30 04:13:04;;;;;;;92.10;58.65;;;;;;;-0.47;83.20;96770.66;123396;1103;64978;-76
2021/01/30 04:15:35;;;;;;;90.67;57.05;;;;;;;-0.47;83.74;96765.42;123393;1102;64905;-75
2021/01/30 04:18:01;;;;;;;;;;;;;;;-0.51;83.42;96754.28;123411;1102;64990;-75
2021/01/30 04:20:27;;;;;;;99.70;62.87;;;;;;;-0.52;83.46;96762.23;123332;1105;64832;-75
2021/01/30 04:22:54;;;;;;;103.87;69.33;;;;;;;-0.52;83.79;96759.62;123371;1102;64911;-75
2021/01/30 04:25:23;;;;;;;109.27;69.97;;;;;;;-0.51;83.67;96753.44;123363;1102;65052;-75
2021/01/30 04:27:50;;;;;;;105.10;70.03;;;;;;;-0.51;84.15;96750.83;123374;1103;64905;-75
2021/01/30 04:30:21;;;;;;;97.43;64.87;;;;;;;-0.51;83.34;96749.05;123386;1102;64889;-75
2021/01/30 04:32:47;;;;;;;92.90;63.27;;;;;;;-0.54;83.30;96741.38;123391;1102;64828;-75
2021/01/30 04:35:16;;;;;;;80.43;53.40;;;;;;;-0.53;83.30;96739.60;123369;1102;64965;-75
2021/01/30 04:37:43;;;;;;;83.27;54.37;;;;;;;-0.55;83.79;96750.17;123451;1102;65016;-75
2021/01/30 04:40:15;;;;;;;83.63;56.03;;;;;;;-0.55;83.32;96741.49;123358;1105;65309;-75
2021/01/30 04:42:57;;;;;;;86.20;59.30;;;;;;;-0.54;84.09;96735.31;123386;1102;64937;-75
2021/01/30 04:45:43;;;;;;;89.70;59.50;;;;;;;-0.51;83.98;96737.75;123377;1102;64832;-74
2021/01/30 04:48:24;;;;;;;82.90;58.10;;;;;;;-0.50;84.09;96728.95;123375;1102;64888;-75
2021/01/30 04:51:07;;;;;;;83.57;57.47;;;;;;;-0.48;83.52;96727.93;123376;1102;65171;-76
2021/01/30 04:53:36;;;;;;;88.27;55.70;;;;;;;-0.50;83.78;96732.44;123385;1105;65017;-76
2021/01/30 04:56:16;;;;;;;87.70;56.68;;;;;;;-0.49;83.43;96728.88;123321;1102;64875;-76
2021/01/30 04:58:55;;;;;;;81.90;55.27;;;;;;;-0.45;83.71;96722.55;123304;1104;64930;-76
2021/01/30 05:01:38;;;;;;;87.43;57.00;;;;;;;-0.38;84.16;96722.17;123387;1102;64912;-76
2021/01/30 05:04:12;;;;;;;92.17;61.63;;;;;;;-0.32;83.84;96727.02;123359;1103;64950;-76
2021/01/30 05:07:12;;;;;;;92.10;63.40;;;;;;;-0.28;83.69;96731.16;123399;1102;65368;-75
2021/01/30 05:09:51;;;;;;;90.63;59.20;;;;;;;-0.28;83.51;96725.92;123243;1102;64902;-76
2021/01/30 05:12:48;;;;;;;88.20;59.50;;;;;;;-0.32;83.71;96727.02;123384;1102;64873;-75
2021/01/30 05:15:25;;;;;;;90.80;60.37;;;;;;;-0.33;84.05;96735.82;123377;1102;64891;-75
2021/01/30 05:18:02;;;;;;;99.50;62.10;;;;;;;-0.32;84.21;96737.49;123339;1102;64940;-76
2021/01/30 05:20:33;;;;;;;92.80;59.83;;;;;;;-0.30;83.45;96726.00;123381;1102;65068;-75
2021/01/30 05:23:03;;;;;;;84.20;57.17;;;;;;;-0.28;84.06;96723.30;123366;1102;64908;-75
2021/01/30 05:25:30;;;;;;;83.97;56.70;;;;;;;-0.24;83.74;96722.17;123401;1102;64873;-75
2021/01/30 05:28:01;;;;;;;88.13;58.10;;;;;;;-0.22;83.45;96715.91;123406;1102;64905;-75
2021/01/30 05:31:08;;;;;;;86.47;57.67;;;;;;;-0.20;84.18;96725.47;123361;1102;65004;-75
2021/01/30 05:33:50;;;;;;;83.43;54.83;;;;;;;-0.20;84.16;96717.61;123349;1102;64965;-76
2021/01/30 05:36:22;;;;;;;81.65;53.20;;;;;;;-0.18;84.07;96708.73;123379;1102;64975;-77
2021/01/30 05:39:09;;;;;;;83.55;54.35;;;;;;;-0.20;83.83;96701.91;123427;1102;65014;-75
2021/01/30 05:41:52;;;;;;;86.65;58.40;;;;;;;-0.22;83.37;96700.20;123369;1102;65010;-75
2021/01/30 05:44:35;;;;;;;92.27;59.40;;;;;;;-0.24;84.06;96699.48;123362;1102;65081;-76
2021/01/30 05:47:05;;;;;;;87.13;58.23;;;;;;;-0.21;83.74;96708.92;123438;1100;64988;-77
2021/01/30 05:49:40;;;;;;;87.70;59.03;;;;;;;-0.22;84.07;96707.22;123358;1102;64908;-76
2021/01/30 05:52:22;;;;;;;97.87;64.40;;;;;;;-0.19;83.98;96699.18;123382;1102;64873;-76
2021/01/30 05:54:49;;;;;;;93.70;61.55;;;;;;;-0.17;83.60;96699.94;123383;1102;64889;-76
2021/01/30 05:57:17;;;;;;;92.25;62.85;;;;;;;-0.15;83.59;96707.70;123337;1102;64917;-75
2021/01/30 05:59:51;;;;;;;102.47;68.50;;;;;;;-0.13;84.42;96704.06;123395;1105;64966;-75
2021/01/30 06:02:22;;;;;;;90.90;61.67;;;;;;;-0.14;83.82;96688.44;123323;1102;64837;-75
2021/01/30 06:04:49;;;;;;;96.27;63.53;;;;;;;-0.17;83.32;96694.70;123401;1102;64908;-75
2021/01/30 06:07:33;;;;;;;100.90;70.63;;;;;;;-0.17;83.64;96697.31;123376;1105;65020;-76
2021/01/30 06:10:23;;;;;;;105.83;73.67;;;;;;;-0.16;84.13;96703.39;123353;1102;65104;-76
2021/01/30 06:13:07;;;;;;;104.80;70.67;;;;;;;-0.18;84.00;96708.73;123469;1102;64988;-74
2021/01/30 06:15:36;;;;;;;99.60;67.55;;;;;;;-0.16;84.05;96701.61;123405;1102;64831;-75
2021/01/30 06:18:27;;;;;;;89.77;62.80;;;;;;;-0.09;84.16;96708.16;123441;1102;64991;-74
2021/01/30 06:21:02;;;;;;;96.60;65.55;;;;;;;-0.03;83.87;96704.32;123388;1101;64907;-76
2021/01/30 06:23:30;;;;;;;102.10;75.97;;;;;;;-0.02;83.71;96693.77;123347;1102;65042;-76
2021/01/30 06:26:16;;;;;;;92.57;66.13;;;;;;;-0.01;83.91;96694.60;123424;1101;64911;-76
2021/01/30 06:28:48;;;;;;;85.50;61.63;;;;;;;0.02;83.35;96690.95;123372;1102;64876;-75
2021/01/30 06:31:23;;;;;;;86.80;61.30;;;;;;;0.06;84.10;96688.06;123327;1105;64911;-76
2021/01/30 06:33:55;;;;;;;90.30;63.20;;;;;;;0.16;83.61;96683.11;123389;1102;64924;-75
2021/01/30 06:36:27;;;;;;;91.15;63.20;;;;;;;0.30;83.93;96690.09;123412;1102;64985;-75
2021/01/30 06:38:53;;;;;;;88.83;62.50;;;;;;;0.38;83.53;96685.20;123362;1102;64912;-75
2021/01/30 06:41:24;;;;;;;88.70;61.77;;;;;;;0.43;83.70;96683.97;123373;1102;64905;-76
2021/01/30 06:44:02;;;;;;;84.37;57.80;;;;;;;0.46;83.72;96676.86;123378;1102;64905;-76
2021/01/30 06:46:29;;;;;;;79.93;55.27;;;;;;;0.52;83.32;96673.84;123374;1102;64937;-76
2021/01/30 06:49:13;;;;;;;82.37;59.73;;;;;;;0.54;83.48;96675.42;123351;1102;65039;-75
2021/01/30 06:51:40;;;;;;;79.95;53.65;;;;;;;0.61;83.79;96668.86;123342;1102;64908;-75
2021/01/30 06:54:19;;;;;;;59.37;37.63;;;;;;;0.73;85.01;96671.63;123365;1105;65011;-76
2021/01/30 06:57:01;;;;;;;34.53;25.17;;;;;;;0.91;85.40;96664.34;123368;1102;64914;-76
2021/01/30 06:59:35;;;;;;;24.47;18.07;;;;;;;1.11;86.31;96653.39;123351;1102;64888;-75
2021/01/30 07:02:11;;;;;;;21.47;14.77;;;;;;;1.29;86.58;96646.91;123394;1102;64988;-75
2021/01/30 07:04:48;;;;;;;15.80;10.80;;;;;;;1.46;86.50;96635.25;123437;1102;64892;-76
2021/01/30 07:07:48;;;;;;;16.17;11.67;;;;;;;1.67;86.46;96634.73;123349;1103;64918;-75
2021/01/30 07:10:24;;;;;;;14.70;11.43;;;;;;;1.89;86.19;96626.19;123199;1104;65183;-75
2021/01/30 07:13:10;;;;;;;16.35;11.50;;;;;;;2.06;86.46;96623.23;123421;1102;64888;-75
2021/01/30 07:15:57;;;;;;;14.70;9.37;;;;;;;2.19;86.54;96624.03;123350;1102;64892;-75
2021/01/30 07:18:37;;;;;;;11.33;7.47;;;;;;;2.32;86.69;96621.38;123396;1102;64889;-75
2021/01/30 07:21:42;;;;;;;10.97;7.53;;;;;;;2.40;86.58;96624.28;123351;1102;65477;-74
2021/01/30 07:24:30;;;;;;;12.15;8.60;;;;;;;2.52;86.52;96616.45;123221;1102;64914;-74
2021/01/30 07:27:02;;;;;;;12.60;8.60;;;;;;;2.60;86.21;96619.36;123407;1102;64831;-75
2021/01/30 07:30:14;;;;;;;10.00;7.70;;;;;;;2.64;86.22;96611.14;123315;1105;65052;-75
2021/01/30 07:32:43;;;;;;;13.53;8.90;;;;;;;2.68;86.27;96610.91;123351;1101;64914;-75
2021/01/30 07:35:35;;;;;;;11.15;8.20;;;;;;;2.72;86.44;96612.38;123372;1102;64901;-75
2021/01/30 07:38:19;;;;;;;11.40;8.40;;;;;;;2.81;86.43;96607.26;123388;1105;64879;-79
2021/01/30 07:40:55;;;;;;;12.67;8.77;;;;;;;2.92;86.08;96608.26;123331;1102;64972;-76
2021/01/30 07:43:27;;;;;;;15.10;10.60;;;;;;;3.02;86.07;96607.45;123297;1105;65407;-75
2021/01/30 07:46:22;;;;;;;19.70;13.10;;;;;;;3.12;85.86;96604.15;123337;1105;64917;-76
2021/01/30 07:48:55;;;;;;;14.47;8.90;;;;;;;3.24;85.68;96601.43;123342;1102;64892;-76
2021/01/30 07:51:29;;;;;;;14.10;7.73;;;;;;;3.35;86.01;96607.68;123366;1105;64841;-77
2021/01/30 07:53:56;;;;;;;11.63;7.77;;;;;;;3.39;85.51;96604.67;123379;1102;64910;-76
2021/01/30 07:56:39;;;;;;;11.40;6.50;;;;;;;3.43;85.67;96603.50;123358;1105;64921;-76
2021/01/30 07:59:52;;;;;;;11.00;6.40;;;;;;;3.43;85.58;96602.66;123386;1102;64934;-77
2021/01/30 08:02:46;;;;;;;11.53;7.93;;;;;;;3.42;85.98;96603.60;123370;1102;64933;-76
2021/01/30 08:05:21;;;;;;;14.87;10.03;;;;;;;3.43;85.89;96594.77;123352;1105;65008;-76
2021/01/30 08:08:13;;;;;;;11.17;7.67;;;;;;;3.46;85.39;96589.26;123351;1102;64907;-76
2021/01/30 08:11:03;;;;;;;11.13;5.73;;;;;;;3.50;85.58;96586.28;123360;1102;65075;-76
2021/01/30 08:13:42;;;;;;;16.50;11.77;;;;;;;3.58;85.50;96590.09;123341;1103;64991;-76
2021/01/30 08:16:21;;;;;;;10.47;6.93;;;;;;;3.63;85.74;96588.77;123317;1106;64927;-76
2021/01/30 08:18:49;;;;;;;8.33;5.93;;;;;;;3.62;85.35;96588.91;123368;1102;64978;-76
2021/01/30 08:21:39;;;;;;;7.93;4.80;;;;;;;3.63;85.80;96588.77;123433;1102;64876;-76
2021/01/30 08:24:17;;;;;;;9.00;5.80;;;;;;;3.66;85.32;96593.83;123379;1102;64962;-76
2021/01/30 08:26:56;;;;;;;10.07;6.23;;;;;;;3.68;85.40;96593.70;123369;1102;64892;-75
2021/01/30 08:29:46;;;;;;;9.13;5.93;;;;;;;3.73;85.41;96599.44;123349;1102;64886;-76
2021/01/30 08:32:27;;;;;;;8.60;6.07;;;;;;;3.86;84.86;96605.43;123372;1102;64937;-76
2021/01/30 08:35:17;;;;;;;8.83;5.50;;;;;;;3.96;84.94;96600.28;123404;1102;64921;-75
2021/01/30 08:38:02;;;;;;;9.00;5.60;;;;;;;3.99;85.00;96599.21;123339;1102;64914;-76
2021/01/30 08:41:06;;;;;;;8.23;5.50;;;;;;;4.00;84.89;96591.16;123380;1102;64998;-76
2021/01/30 08:43:45;;;;;;;8.20;5.13;;;;;;;4.00;84.48;96585.89;123342;1102;64883;-77
2021/01/30 08:46:32;;;;;;;8.70;5.40;;;;;;;4.02;84.65;96585.78;123341;1102;64902;-76
2021/01/30 08:49:04;;;;;;;9.33;5.40;;;;;;;4.05;84.46;96580.27;123424;1102;64915;-75
2021/01/30 08:51:31;;;;;;;6.73;4.33;;;;;;;4.07;84.48;96587.09;123300;1102;65068;-76
2021/01/30 08:54:18;;;;;;;7.40;4.90;;;;;;;4.11;84.51;96590.34;123403;1102;64906;-76
2021/01/30 08:56:52;;;;;;;6.57;3.83;;;;;;;4.16;84.26;96585.52;123495;1102;64837;-76
2021/01/30 08:59:41;;;;;;;6.50;4.03;;;;;;;4.25;83.78;96586.59;123779;1102;64885;-81
2021/01/30 09:02:29;;;;;;;5.67;4.00;;;;;;;4.36;83.71;96581.30;123597;1102;64835;-80
2021/01/30 09:05:03;;;;;;;6.07;3.67;;;;;;;4.48;83.40;96584.75;123537;1102;64882;-84
2021/01/30 09:07:38;;;;;;;6.57;4.00;;;;;;;4.57;82.84;96590.09;123544;1102;64917;-78
2021/01/30 09:10:25;;;;;;;6.43;4.23;;;;;;;4.65;83.17;96597.39;123784;1102;64984;-79
2021/01/30 09:13:14;;;;;;;8.80;4.20;;;;;;;4.70;82.76;96613.69;123752;1102;64898;-78
2021/01/30 09:15:40;;;;;;;6.37;4.00;;;;;;;4.76;82.81;96607.06;123441;1102;64902;-78
2021/01/30 09:18:22;;;;;;;6.20;3.70;;;;;;;4.87;82.37;96607.05;123741;1102;64978;-78
2021/01/30 09:20:56;;;;;;;7.30;4.90;;;;;;;5.00;82.06;96614.77;123761;1102;64986;-79
2021/01/30 09:23:48;;;;;;;6.95;4.70;;;;;;;5.14;81.40;96613.64;123751;1102;64998;-79
2021/01/30 09:26:40;;;;;;;5.03;3.73;;;;;;;5.23;81.31;96604.94;123647;1102;64879;-76
2021/01/30 09:29:08;;;;;;;9.03;4.67;;;;;;;5.47;80.97;96600.22;123742;1102;64892;-79
2021/01/30 09:31:34;;;;;;;5.73;4.10;;;;;;;5.73;80.32;96603.28;123719;1102;64891;-77
2021/01/30 09:34:14;;;;;;;8.27;4.40;;;;;;;5.81;80.00;96615.84;123441;1102;64879;-78
2021/01/30 09:36:48;;;;;;;5.73;4.10;;;;;;;5.79;78.92;96609.84;123494;1102;64876;-78
2021/01/30 09:39:34;;;;;;;6.30;4.20;;;;;;;5.71;79.54;96621.11;123399;1105;64979;-78
2021/01/30 09:42:15;;;;;;;6.20;4.37;;;;;;;5.63;79.58;96628.81;123752;1102;64952;-78
2021/01/30 09:44:42;;;;;;;7.73;4.70;;;;;;;5.55;79.62;96617.23;123813;1102;65023;-79
2021/01/30 09:47:19;;;;;;;8.80;4.40;;;;;;;5.43;79.75;96622.59;123761;1102;64998;-78
2021/01/30 09:49:49;;;;;;;6.20;3.83;;;;;;;5.36;79.99;96626.71;123421;1102;64930;-78
2021/01/30 09:52:19;;;;;;;8.33;4.60;;;;;;;5.21;80.03;96635.91;123508;1102;64991;-78
2021/01/30 09:54:45;;;;;;;;;;;;;;;5.08;80.62;96649.28;123467;1102;64959;-77
2021/01/30 09:57:21;;;;;;;7.63;4.50;;;;;;;4.93;80.90;96658.48;123772;1102;65049;-77
2021/01/30 09:59:59;;;;;;;9.53;5.17;;;;;;;4.78;81.33;96668.47;123821;1102;64908;-77
2021/01/30 10:02:29;;;;;;;11.70;6.90;;;;;;;4.66;81.44;96678.23;123771;1102;64944;-78
2021/01/30 10:05:14;;;;;;;11.85;7.05;;;;;;;4.54;82.00;96689.75;123851;1102;64908;-79
2021/01/30 10:07:42;;;;;;;10.20;7.35;;;;;;;4.35;81.82;96722.84;123759;1102;64901;-80
2021/01/30 10:10:38;;;;;;;10.50;7.93;;;;;;;3.86;81.05;96718.72;123433;1102;65035;-80
2021/01/30 10:13:13;;;;;;;14.50;8.87;;;;;;;3.51;81.23;96724.88;123655;1102;64952;-81
2021/01/30 10:15:44;;;;;;;14.30;8.40;;;;;;;3.47;81.69;96730.47;123434;1106;64981;-83
2021/01/30 10:18:15;;;;;;;16.33;10.93;;;;;;;3.37;80.85;96743.50;123810;1102;64933;-80
2021/01/30 10:21:00;;;;;;;16.87;11.87;;;;;;;3.26;80.87;96746.90;123467;1102;64918;-80
2021/01/30 10:23:48;;;;;;;20.53;13.70;;;;;;;3.00;81.17;96772.52;123857;1102;65023;-82
2021/01/30 10:26:26;;;;;;;25.60;15.77;;;;;;;2.76;81.38;96775.08;123527;1102;64875;-83
2021/01/30 10:29:04;;;;;;;21.63;14.40;;;;;;;2.55;81.58;96773.97;123903;1102;64988;-81
2021/01/30 10:31:57;;;;;;;22.77;16.35;;;;;;;2.41;82.18;96788.09;123434;1103;64997;-81
2021/01/30 10:34:41;;;;;;;31.27;20.93;;;;;;;2.26;81.39;96807.55;123454;1102;65245;-81
2021/01/30 10:37:07;;;;;;;33.27;22.27;;;;;;;2.12;81.18;96819.84;123846;1102;64885;-81
2021/01/30 10:39:37;;;;;;;39.47;25.07;;;;;;;2.03;81.69;96825.73;123854;1102;64905;-83
2021/01/30 10:42:19;;;;;;;;;;;;;;;1.90;79.40;96819.62;123915;1102;64902;-81
2021/01/30 10:44:48;;;;;;;49.53;30.77;;;;;;;1.77;79.84;96831.88;123478;1102;64876;-81
2021/01/30 10:47:21;;;;;;;49.17;35.20;;;;;;;1.70;79.96;96844.56;123884;1102;65268;-81
2021/01/30 10:49:48;;;;;;;50.60;35.63;;;;;;;1.61;78.52;96811.89;123895;1102;64891;-82
2021/01/30 10:52:24;;;;;;;54.83;37.37;;;;;;;1.58;79.53;96829.60;123503;1103;65387;-81
2021/01/30 10:54:51;;;;;;;53.40;35.43;;;;;;;1.46;79.04;96862.75;123871;1102;64902;-80
2021/01/30 10:57:17;;;;;;;55.53;37.33;;;;;;;1.20;77.96;96899.36;123502;1102;64984;-81
2021/01/30 11:00:01;;;;;;;56.70;37.97;;;;;;;1.02;79.35;96903.97;123853;1102;64905;-82
2021/01/30 11:02:37;;;;;;;58.27;39.70;;;;;;;0.90;79.82;96906.54;123519;1102;64934;-81
2021/01/30 11:05:18;;;;;;;56.87;38.23;;;;;;;0.79;79.82;96912.41;123864;1102;64911;-81
2021/01/30 11:08:03;;;;;;;55.43;39.07;;;;;;;0.69;79.64;96934.91;123874;1102;64864;-80
2021/01/30 11:10:33;;;;;;;60.03;41.17;;;;;;;0.56;79.25;96948.73;123512;1102;64928;-79
2021/01/30 11:13:10;;;;;;;60.77;40.93;;;;;;;0.46;79.89;96957.23;123885;1101;65011;-80
2021/01/30 11:15:43;;;;;;;60.87;40.50;;;;;;;0.37;79.90;96969.95;123505;1103;64985;-81
2021/01/30 11:18:18;;;;;;;60.25;40.50;;;;;;;0.35;80.35;96979.67;123891;1102;64953;-80
2021/01/30 11:20:47;;;;;;;67.93;42.33;;;;;;;0.27;79.91;96981.89;123849;1102;64905;-81
2021/01/30 11:23:41;;;;;;;64.07;41.20;;;;;;;0.14;79.60;96978.30;124154;1101;64906;-82
2021/01/30 11:26:11;;;;;;;62.75;41.75;;;;;;;0.05;79.98;96991.91;123837;1102;64895;-81
2021/01/30 11:28:38;;;;;;;65.22;43.92;;;;;;;0.02;80.52;97007.80;123872;1102;64905;-81
2021/01/30 11:31:05;;;;;;;69.17;42.93;;;;;;;0.00;80.19;97015.75;123841;1102;64924;-80
2021/01/30 11:33:33;;;;;;;55.50;37.23;;;;;;;-0.06;80.19;97011.67;123864;1102;64908;-81
2021/01/30 11:35:59;;;;;;;57.20;37.37;;;;;;;-0.13;80.02;97038.28;123842;1102;64898;-81
2021/01/30 11:38:28;;;;;;;48.03;31.50;;;;;;;-0.24;78.93;97067.67;123874;1102;64934;-82
2021/01/30 11:40:57;;;;;;;48.50;30.07;;;;;;;-0.38;78.30;97067.59;123856;1102;64902;-81
2021/01/30 11:43:24;;;;;;;50.33;32.57;;;;;;;-0.48;79.84;97091.62;123832;1101;64911;-82
2021/01/30 11:45:52;;;;;;;44.30;30.60;;;;;;;-0.49;79.64;97096.95;123870;1102;64908;-81
2021/01/30 11:48:20;;;;;;;42.55;29.60;;;;;;;-0.55;79.77;97105.13;123930;1102;64902;-82
2021/01/30 11:50:49;;;;;;;39.40;25.43;;;;;;;-0.63;78.45;97116.00;123411;1105;64912;-81
2021/01/30 11:53:19;;;;;;;43.33;25.23;;;;;;;-0.72;78.58;97106.00;123564;1101;64945;-80